sensor_id;sensor_type;location;lat;lon;timestamp;temperature;humidity
21031;DHT22;61072;47.808;7.636;2023-09-07T00:00:14;19.80;99.90
21031;DHT22;61072;47.808;7.636;2023-09-07T00:02:41;19.80;99.90
21031;DHT22;61072;47.808;7.636;2023-09-07T00:05:08;19.80;99.90
21031;DHT22;61072;47.808;7.636;2023-09-07T00:07:35;19.70;99.90
21031;DHT22;61072;47.808;7.636;2023-09-07T00:10:02;19.70;99.90
21031;DHT22;61072;47.808;7.636;2023-09-07T00:12:29;19.70;99.90
21031;DHT22;61072;47.808;7.636;2023-09-07T00:14:57;19.70;99.90
21031;DHT22;61072;47.808;7.636;2023-09-07T00:17:25;19.60;99.90
21031;DHT22;61072;47.808;7.636;2023-09-07T00:19:52;19.60;99.90
21031;DHT22;61072;47.808;7.636;2023-09-07T00:22:19;19.60;99.90
21031;DHT22;61072;47.808;7.636;2023-09-07T00:24:45;19.60;99.90
21031;DHT22;61072;47.808;7.636;2023-09-07T00:27:12;19.60;99.90
21031;DHT22;61072;47.808;7.636;2023-09-07T00:29:39;19.50;99.90
21031;DHT22;61072;47.808;7.636;2023-09-07T00:32:05;19.50;99.90
21031;DHT22;61072;47.808;7.636;2023-09-07T00:34:32;19.50;99.90
21031;DHT22;61072;47.808;7.636;2023-09-07T00:37:00;19.50;99.90
21031;DHT22;61072;47.808;7.636;2023-09-07T00:39:26;19.50;99.90
21031;DHT22;61072;47.808;7.636;2023-09-07T00:41:53;19.50;99.90
21031;DHT22;61072;47.808;7.636;2023-09-07T00:44:21;19.50;99.90
21031;DHT22;61072;47.808;7.636;2023-09-07T00:46:48;19.40;99.90
21031;DHT22;61072;47.808;7.636;2023-09-07T00:49:14;19.40;99.90
21031;DHT22;61072;47.808;7.636;2023-09-07T00:51:41;19.40;99.90
21031;DHT22;61072;47.808;7.636;2023-09-07T00:54:08;19.40;99.90
21031;DHT22;61072;47.808;7.636;2023-09-07T00:56:35;19.40;99.90
21031;DHT22;61072;47.808;7.636;2023-09-07T00:59:02;19.30;99.90
21031;DHT22;61072;47.808;7.636;2023-09-07T01:01:29;19.30;99.90
21031;DHT22;61072;47.808;7.636;2023-09-07T01:03:57;19.30;99.90
21031;DHT22;61072;47.808;7.636;2023-09-07T01:06:29;19.30;99.90
21031;DHT22;61072;47.808;7.636;2023-09-07T01:08:57;19.30;99.90
21031;DHT22;61072;47.808;7.636;2023-09-07T01:11:26;19.30;99.90
21031;DHT22;61072;47.808;7.636;2023-09-07T01:13:53;19.20;99.90
21031;DHT22;61072;47.808;7.636;2023-09-07T01:16:21;19.30;99.90
21031;DHT22;61072;47.808;7.636;2023-09-07T01:18:50;19.20;99.90
21031;DHT22;61072;47.808;7.636;2023-09-07T01:21:17;19.20;99.90
21031;DHT22;61072;47.808;7.636;2023-09-07T01:23:45;19.20;99.90
21031;DHT22;61072;47.808;7.636;2023-09-07T01:26:13;19.20;99.90
21031;DHT22;61072;47.808;7.636;2023-09-07T01:28:39;19.20;99.90
21031;DHT22;61072;47.808;7.636;2023-09-07T01:31:06;19.20;99.90
21031;DHT22;61072;47.808;7.636;2023-09-07T01:33:33;19.20;99.90
21031;DHT22;61072;47.808;7.636;2023-09-07T01:36:00;19.10;99.90
21031;DHT22;61072;47.808;7.636;2023-09-07T01:38:26;19.10;99.90
21031;DHT22;61072;47.808;7.636;2023-09-07T01:40:53;19.10;99.90
21031;DHT22;61072;47.808;7.636;2023-09-07T01:43:20;19.00;99.90
21031;DHT22;61072;47.808;7.636;2023-09-07T01:45:46;19.10;99.90
21031;DHT22;61072;47.808;7.636;2023-09-07T01:48:14;19.10;99.90
21031;DHT22;61072;47.808;7.636;2023-09-07T01:50:41;19.00;99.90
21031;DHT22;61072;47.808;7.636;2023-09-07T01:53:08;19.00;99.90
21031;DHT22;61072;47.808;7.636;2023-09-07T01:55:34;19.00;99.90
21031;DHT22;61072;47.808;7.636;2023-09-07T01:58:01;19.00;99.90
21031;DHT22;61072;47.808;7.636;2023-09-07T02:00:28;19.00;99.90
21031;DHT22;61072;47.808;7.636;2023-09-07T02:02:55;19.00;99.90
21031;DHT22;61072;47.808;7.636;2023-09-07T02:05:21;18.90;99.90
21031;DHT22;61072;47.808;7.636;2023-09-07T02:07:48;18.90;99.90
21031;DHT22;61072;47.808;7.636;2023-09-07T02:10:16;18.90;99.90
21031;DHT22;61072;47.808;7.636;2023-09-07T02:12:45;18.80;99.90
21031;DHT22;61072;47.808;7.636;2023-09-07T02:15:11;18.80;99.90
21031;DHT22;61072;47.808;7.636;2023-09-07T02:17:38;18.90;99.90
21031;DHT22;61072;47.808;7.636;2023-09-07T02:20:05;18.80;99.90
21031;DHT22;61072;47.808;7.636;2023-09-07T02:22:37;18.80;99.90
21031;DHT22;61072;47.808;7.636;2023-09-07T02:25:04;18.80;99.90
21031;DHT22;61072;47.808;7.636;2023-09-07T02:27:32;18.80;99.90
21031;DHT22;61072;47.808;7.636;2023-09-07T02:29:59;18.80;99.90
21031;DHT22;61072;47.808;7.636;2023-09-07T02:32:26;18.70;99.90
21031;DHT22;61072;47.808;7.636;2023-09-07T02:34:52;18.70;99.90
21031;DHT22;61072;47.808;7.636;2023-09-07T02:37:19;18.70;99.90
21031;DHT22;61072;47.808;7.636;2023-09-07T02:39:46;18.70;99.90
21031;DHT22;61072;47.808;7.636;2023-09-07T02:42:12;18.70;99.90
21031;DHT22;61072;47.808;7.636;2023-09-07T02:44:39;18.70;99.90
21031;DHT22;61072;47.808;7.636;2023-09-07T02:47:06;18.70;99.90
21031;DHT22;61072;47.808;7.636;2023-09-07T02:49:34;18.70;99.90
21031;DHT22;61072;47.808;7.636;2023-09-07T02:52:01;18.60;99.90
21031;DHT22;61072;47.808;7.636;2023-09-07T02:54:27;18.60;99.90
21031;DHT22;61072;47.808;7.636;2023-09-07T02:56:54;18.60;99.90
21031;DHT22;61072;47.808;7.636;2023-09-07T02:59:20;18.60;99.90
21031;DHT22;61072;47.808;7.636;2023-09-07T03:01:47;18.60;99.90
21031;DHT22;61072;47.808;7.636;2023-09-07T03:04:14;18.60;99.90
21031;DHT22;61072;47.808;7.636;2023-09-07T03:06:40;18.50;99.90
21031;DHT22;61072;47.808;7.636;2023-09-07T03:09:07;18.50;99.90
21031;DHT22;61072;47.808;7.636;2023-09-07T03:11:35;18.50;99.90
21031;DHT22;61072;47.808;7.636;2023-09-07T03:14:02;18.50;99.90
21031;DHT22;61072;47.808;7.636;2023-09-07T03:16:28;18.50;99.90
21031;DHT22;61072;47.808;7.636;2023-09-07T03:18:56;18.50;99.90
21031;DHT22;61072;47.808;7.636;2023-09-07T03:21:23;18.40;99.90
21031;DHT22;61072;47.808;7.636;2023-09-07T03:23:56;18.40;99.90
21031;DHT22;61072;47.808;7.636;2023-09-07T03:26:22;18.50;99.90
21031;DHT22;61072;47.808;7.636;2023-09-07T03:28:49;18.40;99.90
21031;DHT22;61072;47.808;7.636;2023-09-07T03:31:16;18.40;99.90
21031;DHT22;61072;47.808;7.636;2023-09-07T03:33:42;18.40;99.90
21031;DHT22;61072;47.808;7.636;2023-09-07T03:36:09;18.40;99.90
21031;DHT22;61072;47.808;7.636;2023-09-07T03:38:37;18.40;99.90
21031;DHT22;61072;47.808;7.636;2023-09-07T03:41:03;18.40;99.90
21031;DHT22;61072;47.808;7.636;2023-09-07T03:43:30;18.40;99.90
21031;DHT22;61072;47.808;7.636;2023-09-07T03:45:57;18.40;99.90
21031;DHT22;61072;47.808;7.636;2023-09-07T03:48:24;18.30;99.90
21031;DHT22;61072;47.808;7.636;2023-09-07T03:50:50;18.30;99.90
21031;DHT22;61072;47.808;7.636;2023-09-07T03:53:17;18.30;99.90
21031;DHT22;61072;47.808;7.636;2023-09-07T03:55:44;18.30;99.90
21031;DHT22;61072;47.808;7.636;2023-09-07T03:58:11;18.30;99.90
21031;DHT22;61072;47.808;7.636;2023-09-07T04:00:41;18.30;99.90
21031;DHT22;61072;47.808;7.636;2023-09-07T04:03:08;18.30;99.90
21031;DHT22;61072;47.808;7.636;2023-09-07T04:05:38;18.30;99.90
21031;DHT22;61072;47.808;7.636;2023-09-07T04:08:07;18.30;99.90
21031;DHT22;61072;47.808;7.636;2023-09-07T04:10:37;18.20;99.90
21031;DHT22;61072;47.808;7.636;2023-09-07T04:13:04;18.20;99.90
21031;DHT22;61072;47.808;7.636;2023-09-07T04:15:33;18.20;99.90
21031;DHT22;61072;47.808;7.636;2023-09-07T04:17:59;18.20;99.90
21031;DHT22;61072;47.808;7.636;2023-09-07T04:20:26;18.20;99.90
21031;DHT22;61072;47.808;7.636;2023-09-07T04:22:54;18.20;99.90
21031;DHT22;61072;47.808;7.636;2023-09-07T04:25:21;18.20;99.90
21031;DHT22;61072;47.808;7.636;2023-09-07T04:27:48;18.20;99.90
21031;DHT22;61072;47.808;7.636;2023-09-07T04:30:14;18.10;99.90
21031;DHT22;61072;47.808;7.636;2023-09-07T04:32:41;18.10;99.90
21031;DHT22;61072;47.808;7.636;2023-09-07T04:35:08;18.10;99.90
21031;DHT22;61072;47.808;7.636;2023-09-07T04:37:35;18.10;99.90
21031;DHT22;61072;47.808;7.636;2023-09-07T04:40:01;18.10;99.90
21031;DHT22;61072;47.808;7.636;2023-09-07T04:42:29;18.10;99.90
21031;DHT22;61072;47.808;7.636;2023-09-07T04:44:55;18.00;99.90
21031;DHT22;61072;47.808;7.636;2023-09-07T04:47:22;18.00;99.90
21031;DHT22;61072;47.808;7.636;2023-09-07T04:49:49;18.00;99.90
21031;DHT22;61072;47.808;7.636;2023-09-07T04:52:18;18.00;99.90
21031;DHT22;61072;47.808;7.636;2023-09-07T04:54:45;18.00;99.90
21031;DHT22;61072;47.808;7.636;2023-09-07T04:57:13;18.00;99.90
21031;DHT22;61072;47.808;7.636;2023-09-07T04:59:40;18.00;99.90
21031;DHT22;61072;47.808;7.636;2023-09-07T05:02:06;18.00;99.90
21031;DHT22;61072;47.808;7.636;2023-09-07T05:04:33;17.90;99.90
21031;DHT22;61072;47.808;7.636;2023-09-07T05:07:00;17.90;99.90
21031;DHT22;61072;47.808;7.636;2023-09-07T05:09:26;17.90;99.90
21031;DHT22;61072;47.808;7.636;2023-09-07T05:11:55;17.90;99.90
21031;DHT22;61072;47.808;7.636;2023-09-07T05:14:25;17.90;99.90
21031;DHT22;61072;47.808;7.636;2023-09-07T05:16:52;17.90;99.90
21031;DHT22;61072;47.808;7.636;2023-09-07T05:19:19;17.90;99.90
21031;DHT22;61072;47.808;7.636;2023-09-07T05:21:45;17.90;99.90
21031;DHT22;61072;47.808;7.636;2023-09-07T05:24:13;17.90;99.90
21031;DHT22;61072;47.808;7.636;2023-09-07T05:26:39;17.90;99.90
21031;DHT22;61072;47.808;7.636;2023-09-07T05:29:06;17.90;99.90
21031;DHT22;61072;47.808;7.636;2023-09-07T05:31:33;17.90;99.90
21031;DHT22;61072;47.808;7.636;2023-09-07T05:33:59;17.90;99.90
21031;DHT22;61072;47.808;7.636;2023-09-07T05:36:27;17.90;99.90
21031;DHT22;61072;47.808;7.636;2023-09-07T05:38:54;17.90;99.90
21031;DHT22;61072;47.808;7.636;2023-09-07T05:41:20;17.90;99.90
21031;DHT22;61072;47.808;7.636;2023-09-07T05:43:47;18.00;99.90
21031;DHT22;61072;47.808;7.636;2023-09-07T05:46:15;18.00;99.90
21031;DHT22;61072;47.808;7.636;2023-09-07T05:48:42;18.00;99.90
21031;DHT22;61072;47.808;7.636;2023-09-07T05:51:08;18.00;99.90
21031;DHT22;61072;47.808;7.636;2023-09-07T05:53:35;18.00;99.90
21031;DHT22;61072;47.808;7.636;2023-09-07T05:56:02;18.00;99.90
21031;DHT22;61072;47.808;7.636;2023-09-07T05:58:28;18.10;99.90
21031;DHT22;61072;47.808;7.636;2023-09-07T06:00:56;18.10;99.90
21031;DHT22;61072;47.808;7.636;2023-09-07T06:03:22;18.10;99.90
21031;DHT22;61072;47.808;7.636;2023-09-07T06:05:49;18.10;99.90
21031;DHT22;61072;47.808;7.636;2023-09-07T06:08:16;18.20;99.90
21031;DHT22;61072;47.808;7.636;2023-09-07T06:10:43;18.20;99.90
21031;DHT22;61072;47.808;7.636;2023-09-07T06:13:09;18.20;99.90
21031;DHT22;61072;47.808;7.636;2023-09-07T06:15:36;18.30;99.90
21031;DHT22;61072;47.808;7.636;2023-09-07T06:18:03;18.30;99.90
21031;DHT22;61072;47.808;7.636;2023-09-07T06:20:30;18.30;99.90
21031;DHT22;61072;47.808;7.636;2023-09-07T06:22:56;18.30;99.90
21031;DHT22;61072;47.808;7.636;2023-09-07T06:25:23;18.40;99.90
21031;DHT22;61072;47.808;7.636;2023-09-07T06:27:50;18.40;99.90
21031;DHT22;61072;47.808;7.636;2023-09-07T06:30:17;18.40;99.90
21031;DHT22;61072;47.808;7.636;2023-09-07T06:32:44;18.40;99.90
21031;DHT22;61072;47.808;7.636;2023-09-07T06:35:11;18.50;99.90
21031;DHT22;61072;47.808;7.636;2023-09-07T06:37:38;18.50;99.90
21031;DHT22;61072;47.808;7.636;2023-09-07T06:40:07;18.50;99.90
21031;DHT22;61072;47.808;7.636;2023-09-07T06:42:34;18.60;99.90
21031;DHT22;61072;47.808;7.636;2023-09-07T06:45:01;18.60;99.90
21031;DHT22;61072;47.808;7.636;2023-09-07T06:47:29;18.70;99.90
21031;DHT22;61072;47.808;7.636;2023-09-07T06:49:57;18.70;99.90
21031;DHT22;61072;47.808;7.636;2023-09-07T06:52:24;18.70;99.90
21031;DHT22;61072;47.808;7.636;2023-09-07T06:54:52;18.80;99.90
21031;DHT22;61072;47.808;7.636;2023-09-07T06:57:20;18.80;99.90
21031;DHT22;61072;47.808;7.636;2023-09-07T06:59:47;18.80;99.90
21031;DHT22;61072;47.808;7.636;2023-09-07T07:02:15;18.90;99.90
21031;DHT22;61072;47.808;7.636;2023-09-07T07:04:41;18.90;99.90
21031;DHT22;61072;47.808;7.636;2023-09-07T07:07:10;19.00;99.90
21031;DHT22;61072;47.808;7.636;2023-09-07T07:09:37;19.00;99.90
21031;DHT22;61072;47.808;7.636;2023-09-07T07:12:04;19.10;99.90
21031;DHT22;61072;47.808;7.636;2023-09-07T07:14:31;19.10;99.90
21031;DHT22;61072;47.808;7.636;2023-09-07T07:16:58;19.20;99.90
21031;DHT22;61072;47.808;7.636;2023-09-07T07:19:25;19.20;99.90
21031;DHT22;61072;47.808;7.636;2023-09-07T07:21:52;19.30;99.90
21031;DHT22;61072;47.808;7.636;2023-09-07T07:24:18;19.30;99.90
21031;DHT22;61072;47.808;7.636;2023-09-07T07:26:45;19.30;99.90
21031;DHT22;61072;47.808;7.636;2023-09-07T07:29:12;19.40;99.90
21031;DHT22;61072;47.808;7.636;2023-09-07T07:31:39;19.40;99.90
21031;DHT22;61072;47.808;7.636;2023-09-07T07:34:05;19.40;99.90
21031;DHT22;61072;47.808;7.636;2023-09-07T07:36:32;19.50;99.90
21031;DHT22;61072;47.808;7.636;2023-09-07T07:38:59;19.50;99.90
21031;DHT22;61072;47.808;7.636;2023-09-07T07:41:25;19.60;99.90
21031;DHT22;61072;47.808;7.636;2023-09-07T07:43:52;19.60;99.90
21031;DHT22;61072;47.808;7.636;2023-09-07T07:46:19;19.60;99.90
21031;DHT22;61072;47.808;7.636;2023-09-07T07:48:46;19.70;99.90
21031;DHT22;61072;47.808;7.636;2023-09-07T07:51:13;19.70;99.90
21031;DHT22;61072;47.808;7.636;2023-09-07T07:53:39;19.80;99.90
21031;DHT22;61072;47.808;7.636;2023-09-07T07:56:13;19.80;99.90
21031;DHT22;61072;47.808;7.636;2023-09-07T07:58:41;19.90;99.90
21031;DHT22;61072;47.808;7.636;2023-09-07T08:01:17;19.90;99.90
21031;DHT22;61072;47.808;7.636;2023-09-07T08:03:44;19.90;99.90
21031;DHT22;61072;47.808;7.636;2023-09-07T08:06:11;20.00;99.90
21031;DHT22;61072;47.808;7.636;2023-09-07T08:08:41;20.10;99.90
21031;DHT22;61072;47.808;7.636;2023-09-07T08:11:07;20.10;99.90
21031;DHT22;61072;47.808;7.636;2023-09-07T08:13:35;20.10;99.90
21031;DHT22;61072;47.808;7.636;2023-09-07T08:16:03;20.20;99.90
21031;DHT22;61072;47.808;7.636;2023-09-07T08:18:29;20.20;99.90
21031;DHT22;61072;47.808;7.636;2023-09-07T08:20:59;20.30;99.90
21031;DHT22;61072;47.808;7.636;2023-09-07T08:23:26;20.30;99.90
21031;DHT22;61072;47.808;7.636;2023-09-07T08:25:53;20.40;99.90
21031;DHT22;61072;47.808;7.636;2023-09-07T08:28:20;20.40;99.90
21031;DHT22;61072;47.808;7.636;2023-09-07T08:30:49;20.50;99.90
21031;DHT22;61072;47.808;7.636;2023-09-07T08:33:16;20.50;99.90
21031;DHT22;61072;47.808;7.636;2023-09-07T08:35:43;20.60;99.90
21031;DHT22;61072;47.808;7.636;2023-09-07T08:38:11;20.60;99.90
21031;DHT22;61072;47.808;7.636;2023-09-07T08:40:38;20.70;99.90
21031;DHT22;61072;47.808;7.636;2023-09-07T08:43:07;20.70;99.90
21031;DHT22;61072;47.808;7.636;2023-09-07T08:45:37;20.70;99.90
21031;DHT22;61072;47.808;7.636;2023-09-07T08:48:08;20.80;99.90
21031;DHT22;61072;47.808;7.636;2023-09-07T08:50:35;20.90;99.90
21031;DHT22;61072;47.808;7.636;2023-09-07T08:53:04;20.90;99.90
21031;DHT22;61072;47.808;7.636;2023-09-07T08:55:31;20.90;99.90
21031;DHT22;61072;47.808;7.636;2023-09-07T08:57:57;21.00;99.90
21031;DHT22;61072;47.808;7.636;2023-09-07T09:00:24;21.00;99.90
21031;DHT22;61072;47.808;7.636;2023-09-07T09:02:51;21.10;99.90
21031;DHT22;61072;47.808;7.636;2023-09-07T09:05:23;21.10;99.90
21031;DHT22;61072;47.808;7.636;2023-09-07T09:08:00;21.10;99.90
21031;DHT22;61072;47.808;7.636;2023-09-07T09:10:26;21.10;99.90
21031;DHT22;61072;47.808;7.636;2023-09-07T09:12:53;21.20;99.90
21031;DHT22;61072;47.808;7.636;2023-09-07T09:15:22;21.20;99.90
21031;DHT22;61072;47.808;7.636;2023-09-07T09:17:49;21.30;99.90
21031;DHT22;61072;47.808;7.636;2023-09-07T09:20:22;21.30;99.90
21031;DHT22;61072;47.808;7.636;2023-09-07T09:22:52;21.40;99.90
21031;DHT22;61072;47.808;7.636;2023-09-07T09:25:19;21.40;99.90
21031;DHT22;61072;47.808;7.636;2023-09-07T09:27:47;21.50;99.90
21031;DHT22;61072;47.808;7.636;2023-09-07T09:30:14;21.50;99.90
21031;DHT22;61072;47.808;7.636;2023-09-07T09:32:43;21.60;99.90
21031;DHT22;61072;47.808;7.636;2023-09-07T09:35:10;21.60;99.90
21031;DHT22;61072;47.808;7.636;2023-09-07T09:37:55;21.60;99.90
21031;DHT22;61072;47.808;7.636;2023-09-07T09:40:23;21.70;99.90
21031;DHT22;61072;47.808;7.636;2023-09-07T09:42:50;21.80;99.90
21031;DHT22;61072;47.808;7.636;2023-09-07T09:45:18;21.80;99.90
21031;DHT22;61072;47.808;7.636;2023-09-07T09:47:45;21.90;99.90
21031;DHT22;61072;47.808;7.636;2023-09-07T09:50:13;21.90;99.90
21031;DHT22;61072;47.808;7.636;2023-09-07T09:52:40;22.00;99.90
21031;DHT22;61072;47.808;7.636;2023-09-07T09:55:07;22.10;99.90
21031;DHT22;61072;47.808;7.636;2023-09-07T09:57:35;22.10;99.90
21031;DHT22;61072;47.808;7.636;2023-09-07T10:00:03;22.20;99.90
21031;DHT22;61072;47.808;7.636;2023-09-07T10:02:47;22.20;99.90
21031;DHT22;61072;47.808;7.636;2023-09-07T10:05:15;22.20;99.90
21031;DHT22;61072;47.808;7.636;2023-09-07T10:07:42;22.30;99.90
21031;DHT22;61072;47.808;7.636;2023-09-07T10:10:10;22.40;99.90
21031;DHT22;61072;47.808;7.636;2023-09-07T10:12:42;22.50;99.90
21031;DHT22;61072;47.808;7.636;2023-09-07T10:15:21;22.50;99.90
21031;DHT22;61072;47.808;7.636;2023-09-07T10:17:48;22.60;99.90
21031;DHT22;61072;47.808;7.636;2023-09-07T10:20:17;22.70;99.90
21031;DHT22;61072;47.808;7.636;2023-09-07T10:22:44;22.60;99.90
21031;DHT22;61072;47.808;7.636;2023-09-07T10:25:21;22.80;99.90
21031;DHT22;61072;47.808;7.636;2023-09-07T10:27:48;22.80;99.90
21031;DHT22;61072;47.808;7.636;2023-09-07T10:30:15;22.90;99.90
21031;DHT22;61072;47.808;7.636;2023-09-07T10:32:50;23.00;99.90
21031;DHT22;61072;47.808;7.636;2023-09-07T10:35:19;23.10;99.90
21031;DHT22;61072;47.808;7.636;2023-09-07T10:37:48;23.10;99.90
21031;DHT22;61072;47.808;7.636;2023-09-07T10:40:21;23.10;99.90
21031;DHT22;61072;47.808;7.636;2023-09-07T10:42:48;23.20;99.90
21031;DHT22;61072;47.808;7.636;2023-09-07T10:45:15;23.20;99.90
21031;DHT22;61072;47.808;7.636;2023-09-07T10:47:43;23.30;99.90
21031;DHT22;61072;47.808;7.636;2023-09-07T10:50:11;23.30;99.90
21031;DHT22;61072;47.808;7.636;2023-09-07T10:52:38;23.40;99.90
21031;DHT22;61072;47.808;7.636;2023-09-07T10:55:05;23.40;99.90
21031;DHT22;61072;47.808;7.636;2023-09-07T10:57:32;23.50;99.90
21031;DHT22;61072;47.808;7.636;2023-09-07T10:59:58;23.60;99.90
21031;DHT22;61072;47.808;7.636;2023-09-07T11:02:25;23.60;99.90
21031;DHT22;61072;47.808;7.636;2023-09-07T11:04:52;23.70;99.90
21031;DHT22;61072;47.808;7.636;2023-09-07T11:07:19;23.80;99.90
21031;DHT22;61072;47.808;7.636;2023-09-07T11:09:46;23.80;99.90
21031;DHT22;61072;47.808;7.636;2023-09-07T11:12:13;23.90;99.90
21031;DHT22;61072;47.808;7.636;2023-09-07T11:14:40;24.00;99.90
21031;DHT22;61072;47.808;7.636;2023-09-07T11:17:07;24.00;99.90
21031;DHT22;61072;47.808;7.636;2023-09-07T11:19:34;24.00;99.90
21031;DHT22;61072;47.808;7.636;2023-09-07T11:22:00;24.10;99.90
21031;DHT22;61072;47.808;7.636;2023-09-07T11:24:27;24.20;99.90
21031;DHT22;61072;47.808;7.636;2023-09-07T11:26:54;24.20;99.90
21031;DHT22;61072;47.808;7.636;2023-09-07T11:29:22;24.20;99.90
21031;DHT22;61072;47.808;7.636;2023-09-07T11:31:49;24.20;99.90
21031;DHT22;61072;47.808;7.636;2023-09-07T11:34:16;24.30;99.90
21031;DHT22;61072;47.808;7.636;2023-09-07T11:36:42;24.30;99.90
21031;DHT22;61072;47.808;7.636;2023-09-07T11:39:10;24.30;99.90
21031;DHT22;61072;47.808;7.636;2023-09-07T11:41:43;24.30;99.90
21031;DHT22;61072;47.808;7.636;2023-09-07T11:44:10;24.40;99.90
21031;DHT22;61072;47.808;7.636;2023-09-07T11:46:37;24.40;99.90
21031;DHT22;61072;47.808;7.636;2023-09-07T11:49:04;24.50;99.90
21031;DHT22;61072;47.808;7.636;2023-09-07T11:51:32;24.50;99.90
21031;DHT22;61072;47.808;7.636;2023-09-07T11:54:01;24.50;99.90
21031;DHT22;61072;47.808;7.636;2023-09-07T11:56:28;24.50;99.90
21031;DHT22;61072;47.808;7.636;2023-09-07T11:58:55;24.60;99.90
21031;DHT22;61072;47.808;7.636;2023-09-07T12:01:22;24.70;99.90
21031;DHT22;61072;47.808;7.636;2023-09-07T12:03:49;24.60;99.90
21031;DHT22;61072;47.808;7.636;2023-09-07T12:06:16;24.70;99.90
21031;DHT22;61072;47.808;7.636;2023-09-07T12:08:57;24.80;99.90
21031;DHT22;61072;47.808;7.636;2023-09-07T12:11:24;24.90;99.90
21031;DHT22;61072;47.808;7.636;2023-09-07T12:13:50;24.90;99.90
21031;DHT22;61072;47.808;7.636;2023-09-07T12:16:17;25.00;99.90
21031;DHT22;61072;47.808;7.636;2023-09-07T12:18:44;25.10;99.90
21031;DHT22;61072;47.808;7.636;2023-09-07T12:21:11;25.10;99.90
21031;DHT22;61072;47.808;7.636;2023-09-07T12:23:37;25.10;99.90
21031;DHT22;61072;47.808;7.636;2023-09-07T12:26:04;25.20;99.90
21031;DHT22;61072;47.808;7.636;2023-09-07T12:28:31;25.30;99.90
21031;DHT22;61072;47.808;7.636;2023-09-07T12:31:00;25.30;99.90
21031;DHT22;61072;47.808;7.636;2023-09-07T12:33:27;25.30;99.90
21031;DHT22;61072;47.808;7.636;2023-09-07T12:35:57;25.30;99.90
21031;DHT22;61072;47.808;7.636;2023-09-07T12:38:23;25.30;99.90
21031;DHT22;61072;47.808;7.636;2023-09-07T12:40:55;25.40;99.90
21031;DHT22;61072;47.808;7.636;2023-09-07T12:43:22;25.40;99.90
21031;DHT22;61072;47.808;7.636;2023-09-07T12:45:48;25.50;99.90
21031;DHT22;61072;47.808;7.636;2023-09-07T12:48:15;25.50;99.90
21031;DHT22;61072;47.808;7.636;2023-09-07T12:50:42;25.50;99.90
21031;DHT22;61072;47.808;7.636;2023-09-07T12:53:09;25.60;99.90
21031;DHT22;61072;47.808;7.636;2023-09-07T12:55:36;25.60;99.90
21031;DHT22;61072;47.808;7.636;2023-09-07T12:58:03;25.60;99.90
21031;DHT22;61072;47.808;7.636;2023-09-07T13:00:30;25.70;99.90
21031;DHT22;61072;47.808;7.636;2023-09-07T13:02:56;25.70;99.90
21031;DHT22;61072;47.808;7.636;2023-09-07T13:05:23;25.70;99.90
21031;DHT22;61072;47.808;7.636;2023-09-07T13:07:50;25.70;99.90
21031;DHT22;61072;47.808;7.636;2023-09-07T13:10:17;25.70;99.90
21031;DHT22;61072;47.808;7.636;2023-09-07T13:12:45;25.80;99.90
21031;DHT22;61072;47.808;7.636;2023-09-07T13:15:11;25.80;99.90
21031;DHT22;61072;47.808;7.636;2023-09-07T13:17:38;25.80;99.90
21031;DHT22;61072;47.808;7.636;2023-09-07T13:20:05;25.90;99.90
21031;DHT22;61072;47.808;7.636;2023-09-07T13:22:32;25.90;99.90
21031;DHT22;61072;47.808;7.636;2023-09-07T13:24:58;25.90;99.90
21031;DHT22;61072;47.808;7.636;2023-09-07T13:27:25;26.00;99.90
21031;DHT22;61072;47.808;7.636;2023-09-07T13:29:52;26.00;99.90
21031;DHT22;61072;47.808;7.636;2023-09-07T13:32:19;26.10;99.90
21031;DHT22;61072;47.808;7.636;2023-09-07T13:34:45;26.10;99.90
21031;DHT22;61072;47.808;7.636;2023-09-07T13:37:12;26.10;99.90
21031;DHT22;61072;47.808;7.636;2023-09-07T13:39:39;26.20;99.90
21031;DHT22;61072;47.808;7.636;2023-09-07T13:42:05;26.30;99.90
21031;DHT22;61072;47.808;7.636;2023-09-07T13:44:32;26.30;99.90
21031;DHT22;61072;47.808;7.636;2023-09-07T13:46:59;26.30;99.90
21031;DHT22;61072;47.808;7.636;2023-09-07T13:49:26;26.40;99.90
21031;DHT22;61072;47.808;7.636;2023-09-07T13:51:53;26.40;99.90
21031;DHT22;61072;47.808;7.636;2023-09-07T13:54:20;26.50;99.90
21031;DHT22;61072;47.808;7.636;2023-09-07T13:56:46;26.40;99.90
21031;DHT22;61072;47.808;7.636;2023-09-07T13:59:13;26.50;99.90
21031;DHT22;61072;47.808;7.636;2023-09-07T14:01:40;26.60;99.90
21031;DHT22;61072;47.808;7.636;2023-09-07T14:04:07;26.50;99.90
21031;DHT22;61072;47.808;7.636;2023-09-07T14:06:33;26.60;99.90
21031;DHT22;61072;47.808;7.636;2023-09-07T14:09:00;26.60;99.90
21031;DHT22;61072;47.808;7.636;2023-09-07T14:11:27;26.60;99.90
21031;DHT22;61072;47.808;7.636;2023-09-07T14:13:53;26.70;99.90
21031;DHT22;61072;47.808;7.636;2023-09-07T14:16:21;26.70;99.90
21031;DHT22;61072;47.808;7.636;2023-09-07T14:18:48;26.80;99.90
21031;DHT22;61072;47.808;7.636;2023-09-07T14:21:16;26.80;99.90
21031;DHT22;61072;47.808;7.636;2023-09-07T14:23:44;26.90;99.90
21031;DHT22;61072;47.808;7.636;2023-09-07T14:26:10;26.90;99.90
21031;DHT22;61072;47.808;7.636;2023-09-07T14:28:37;26.90;99.90
21031;DHT22;61072;47.808;7.636;2023-09-07T14:31:05;27.00;99.90
21031;DHT22;61072;47.808;7.636;2023-09-07T14:33:34;27.00;99.90
21031;DHT22;61072;47.808;7.636;2023-09-07T14:36:03;27.00;99.90
21031;DHT22;61072;47.808;7.636;2023-09-07T14:38:30;27.00;99.90
21031;DHT22;61072;47.808;7.636;2023-09-07T14:40:57;27.00;99.90
21031;DHT22;61072;47.808;7.636;2023-09-07T14:43:24;27.00;99.90
21031;DHT22;61072;47.808;7.636;2023-09-07T14:45:51;26.90;99.90
21031;DHT22;61072;47.808;7.636;2023-09-07T14:48:17;26.90;99.90
21031;DHT22;61072;47.808;7.636;2023-09-07T14:50:44;26.90;99.90
21031;DHT22;61072;47.808;7.636;2023-09-07T14:53:11;26.90;99.90
21031;DHT22;61072;47.808;7.636;2023-09-07T14:55:37;26.90;99.90
21031;DHT22;61072;47.808;7.636;2023-09-07T14:58:04;26.90;99.90
21031;DHT22;61072;47.808;7.636;2023-09-07T15:00:36;26.90;99.90
21031;DHT22;61072;47.808;7.636;2023-09-07T15:03:02;26.90;99.90
21031;DHT22;61072;47.808;7.636;2023-09-07T15:05:29;26.90;99.90
21031;DHT22;61072;47.808;7.636;2023-09-07T15:07:56;26.90;99.90
21031;DHT22;61072;47.808;7.636;2023-09-07T15:10:23;26.90;99.90
21031;DHT22;61072;47.808;7.636;2023-09-07T15:12:52;26.90;99.90
21031;DHT22;61072;47.808;7.636;2023-09-07T15:15:19;26.90;99.90
21031;DHT22;61072;47.808;7.636;2023-09-07T15:17:48;27.00;99.90
21031;DHT22;61072;47.808;7.636;2023-09-07T15:20:15;27.00;99.90
21031;DHT22;61072;47.808;7.636;2023-09-07T15:22:42;27.00;99.90
21031;DHT22;61072;47.808;7.636;2023-09-07T15:25:09;27.00;99.90
21031;DHT22;61072;47.808;7.636;2023-09-07T15:27:35;27.00;99.90
21031;DHT22;61072;47.808;7.636;2023-09-07T15:30:02;27.00;99.90